createdAt,value
2022-08-08T00:01:52.484Z,62.79
2022-08-08T00:06:00.839Z,62.40
2022-08-08T00:09:52.742Z,62.77
2022-08-08T00:14:16.861Z,63.07
2022-08-08T00:18:03.039Z,62.79
2022-08-08T00:21:49.190Z,62.46
2022-08-08T00:25:39.053Z,62.48
2022-08-08T00:29:45.283Z,61.52
2022-08-08T00:34:17.538Z,61.61
2022-08-08T00:37:47.643Z,61.61
2022-08-08T00:42:09.107Z,61.60
2022-08-08T00:46:16.252Z,61.89
2022-08-08T00:50:30.452Z,62.18
2022-08-08T00:54:48.749Z,62.04
2022-08-08T00:59:13.468Z,62.37
2022-08-08T01:04:02.154Z,62.52
2022-08-08T01:07:57.355Z,62.44
2022-08-08T01:12:29.438Z,62.39
2022-08-08T01:16:55.061Z,62.34
2022-08-08T01:20:45.900Z,62.78
2022-08-08T01:25:16.804Z,63.26
2022-08-08T01:29:27.951Z,63.13
2022-08-08T01:34:00.430Z,63.02
2022-08-08T01:38:05.022Z,63.13
2022-08-08T01:41:54.999Z,63.01
2022-08-08T01:45:56.655Z,63.29
2022-08-08T01:49:53.896Z,63.48
2022-08-08T01:55:16.221Z,63.11
2022-08-08T01:58:12.556Z,62.71
2022-08-08T02:02:05.262Z,62.54
2022-08-08T02:05:59.854Z,62.48
2022-08-08T02:10:11.621Z,62.85
2022-08-08T02:13:58.122Z,62.94
2022-08-08T02:17:48.189Z,62.63
2022-08-08T02:22:00.378Z,62.99
2022-08-08T02:25:50.321Z,63.23
2022-08-08T02:29:57.750Z,62.87
2022-08-08T02:34:08.736Z,63.04
2022-08-08T02:38:25.641Z,62.71
2022-08-08T02:42:41.620Z,62.26
2022-08-08T02:46:38.369Z,61.63
2022-08-08T02:51:07.006Z,62.14
2022-08-08T02:55:39.135Z,62.00
2022-08-08T03:00:27.245Z,62.08
2022-08-08T03:05:04.334Z,62.26
2022-08-08T03:09:23.321Z,62.14
2022-08-08T03:16:02.083Z,62.52
2022-08-08T03:17:43.374Z,63.09
2022-08-08T03:21:58.940Z,63.20
2022-08-08T03:25:46.464Z,63.12
2022-08-08T03:29:54.638Z,63.30
2022-08-08T03:33:58.854Z,63.53
2022-08-08T03:38:54.531Z,63.06
2022-08-08T03:42:12.593Z,63.10
2022-08-08T03:46:06.015Z,63.73
2022-08-08T03:49:57.327Z,64.06
2022-08-08T03:53:47.289Z,64.23
2022-08-08T03:58:30.195Z,64.30
2022-08-08T04:02:13.041Z,64.54
2022-08-08T04:05:49.831Z,64.10
2022-08-08T04:09:59.032Z,64.63
2022-08-08T04:14:03.310Z,65.23
2022-08-08T04:17:58.102Z,65.33
2022-08-08T04:21:45.722Z,65.37
2022-08-08T04:25:30.101Z,65.08
2022-08-08T04:29:16.905Z,64.99
2022-08-08T04:32:59.929Z,65.00
2022-08-08T04:36:42.706Z,65.04
2022-08-08T04:40:25.885Z,65.29
2022-08-08T04:44:09.197Z,65.13
2022-08-08T04:47:53.759Z,65.12
2022-08-08T04:51:54.980Z,65.74
2022-08-08T04:55:47.185Z,65.83
2022-08-08T04:59:42.128Z,65.70
2022-08-08T05:04:10.050Z,65.60
2022-08-08T05:07:37.976Z,65.65
2022-08-08T05:11:26.222Z,66.38
2022-08-08T05:15:13.650Z,65.53
2022-08-08T05:19:00.355Z,65.86
2022-08-08T05:22:43.136Z,65.87
2022-08-08T05:26:27.556Z,65.80
2022-08-08T05:30:11.869Z,65.57
2022-08-08T05:33:55.086Z,65.28
2022-08-08T05:37:52.883Z,65.53
2022-08-08T05:41:54.907Z,65.71
2022-08-08T05:45:42.998Z,64.40
2022-08-08T05:49:38.084Z,64.09
2022-08-08T05:54:24.622Z,64.09
2022-08-08T05:58:06.112Z,63.89
2022-08-08T06:01:56.052Z,63.48
2022-08-08T06:05:36.514Z,63.20
2022-08-08T06:09:58.621Z,64.64
2022-08-08T06:13:35.775Z,64.71
2022-08-08T06:17:32.045Z,64.06
2022-08-08T06:21:33.164Z,63.53
2022-08-08T06:26:36.218Z,62.67
2022-08-08T06:29:56.665Z,62.31
2022-08-08T06:34:25.874Z,61.27
2022-08-08T06:37:57.917Z,60.87
2022-08-08T06:41:44.800Z,60.73
2022-08-08T06:45:33.945Z,60.88
2022-08-08T06:49:17.815Z,61.29
2022-08-08T06:53:01.809Z,60.83
2022-08-08T06:56:59.222Z,60.42
2022-08-08T07:00:45.283Z,60.04
2022-08-08T07:04:45.475Z,59.89
2022-08-08T07:08:36.401Z,60.43
2022-08-08T07:12:30.575Z,58.83
2022-08-08T07:16:19.677Z,58.95
2022-08-08T07:20:11.553Z,58.80
2022-08-08T07:24:03.655Z,59.15
2022-08-08T07:28:02.546Z,59.08
2022-08-08T07:31:51.085Z,59.12
2022-08-08T07:35:35.575Z,59.08
2022-08-08T07:39:29.102Z,58.92
2022-08-08T07:43:14.493Z,58.29
2022-08-08T07:46:57.348Z,58.91
2022-08-08T07:50:40.497Z,58.25
2022-08-08T07:54:30.413Z,58.28
2022-08-08T07:58:20.746Z,57.88
2022-08-08T08:02:36.909Z,57.90
2022-08-08T08:06:14.238Z,58.19
2022-08-08T08:09:58.570Z,56.69
2022-08-08T08:14:07.550Z,56.74
2022-08-08T08:17:55.924Z,56.31
2022-08-08T08:21:52.526Z,56.39
2022-08-08T08:25:45.959Z,56.18
2022-08-08T08:29:39.691Z,56.72
2022-08-08T08:33:26.338Z,57.30
2022-08-08T08:37:09.132Z,57.34
2022-08-08T08:40:52.145Z,56.82
2022-08-08T08:44:35.014Z,56.47
2022-08-08T08:48:21.727Z,54.77
2022-08-08T08:52:09.920Z,54.91
2022-08-08T08:55:53.121Z,51.64
2022-08-08T08:59:59.325Z,51.23
2022-08-08T09:03:46.937Z,49.91
2022-08-08T09:07:39.635Z,49.18
2022-08-08T09:11:47.407Z,50.02
2022-08-08T09:15:42.417Z,52.36
2022-08-08T09:22:01.797Z,51.14
2022-08-08T09:23:33.595Z,50.68
2022-08-08T09:27:21.804Z,50.60
2022-08-08T09:31:12.585Z,51.15
2022-08-08T09:34:57.953Z,50.65
2022-08-08T09:38:53.337Z,50.63
2022-08-08T09:42:44.149Z,50.52
2022-08-08T09:46:35.802Z,49.95
2022-08-08T09:50:26.794Z,50.56
2022-08-08T09:54:15.406Z,51.97
2022-08-08T09:58:07.110Z,50.99
2022-08-08T10:02:02.109Z,51.00
2022-08-08T10:05:47.622Z,50.77
2022-08-08T10:09:58.625Z,50.79
2022-08-08T10:13:38.360Z,49.09
2022-08-08T10:17:56.380Z,49.47
2022-08-08T10:21:33.216Z,49.48
2022-08-08T10:25:36.312Z,49.95
2022-08-08T10:29:57.228Z,50.10
2022-08-08T10:34:19.517Z,48.66
2022-08-08T10:37:53.967Z,50.55
2022-08-08T10:41:58.972Z,49.42
2022-08-08T10:45:55.581Z,49.59
2022-08-08T10:50:01.528Z,47.52
2022-08-08T10:53:57.233Z,46.58
2022-08-08T10:57:49.819Z,46.69
2022-08-08T11:01:34.844Z,49.13
2022-08-08T11:05:18.144Z,48.47
2022-08-08T11:09:09.631Z,47.31
2022-08-08T11:13:27.773Z,47.60
2022-08-08T11:17:04.103Z,47.06
2022-08-08T11:20:52.115Z,49.32
2022-08-08T11:24:37.669Z,48.58
2022-08-08T11:28:25.726Z,46.93
2022-08-08T11:32:09.028Z,48.68
2022-08-08T11:35:57.253Z,47.92
2022-08-08T11:39:43.087Z,46.70
2022-08-08T11:43:42.133Z,46.18
2022-08-08T11:47:39.356Z,44.49
2022-08-08T11:51:40.099Z,44.85
2022-08-08T11:55:36.424Z,46.69
2022-08-08T11:59:19.464Z,47.67
2022-08-08T12:03:24.358Z,46.17
2022-08-08T12:07:08.135Z,46.88
2022-08-08T12:11:06.547Z,46.26
2022-08-08T12:15:01.121Z,46.48
2022-08-08T12:18:48.290Z,45.39
2022-08-08T12:22:44.857Z,43.08
2022-08-08T12:26:37.680Z,43.79
2022-08-08T12:30:33.773Z,44.55
2022-08-08T12:34:16.622Z,45.65
2022-08-08T12:38:05.706Z,44.61
2022-08-08T12:42:01.932Z,45.12
2022-08-08T12:45:58.837Z,44.84
2022-08-08T12:49:47.216Z,43.57
2022-08-08T12:53:36.381Z,42.61
2022-08-08T12:57:26.186Z,43.61
2022-08-08T13:01:11.059Z,44.04
2022-08-08T13:04:58.351Z,42.29
2022-08-08T13:08:53.773Z,41.90
2022-08-08T13:12:47.160Z,40.34
2022-08-08T13:16:33.030Z,42.29
2022-08-08T13:20:18.215Z,42.19
2022-08-08T13:24:03.664Z,40.69
2022-08-08T13:27:54.870Z,41.99
2022-08-08T13:31:47.713Z,42.05
2022-08-08T13:35:41.114Z,42.41
2022-08-08T13:39:27.610Z,40.72
2022-08-08T13:43:12.419Z,41.76
2022-08-08T13:46:57.602Z,39.70
2022-08-08T13:50:51.039Z,37.58
2022-08-08T13:54:44.253Z,36.71
2022-08-08T13:58:34.534Z,36.41
2022-08-08T14:02:31.233Z,38.13
2022-08-08T14:06:32.015Z,36.86
2022-08-08T14:10:33.499Z,36.79
2022-08-08T14:14:26.242Z,37.51
2022-08-08T14:18:36.479Z,35.10
2022-08-08T14:22:28.802Z,33.94
2022-08-08T14:26:21.404Z,33.28
2022-08-08T14:30:18.133Z,35.13
2022-08-08T14:34:02.378Z,33.13
2022-08-08T14:37:59.711Z,32.82
2022-08-08T14:41:54.513Z,31.61
2022-08-08T14:46:01.990Z,30.35
2022-08-08T14:50:06.657Z,30.18
2022-08-08T14:53:56.336Z,29.13
2022-08-08T14:58:02.444Z,29.88
2022-08-08T15:01:49.789Z,27.83
2022-08-08T15:05:52.216Z,27.50
2022-08-08T15:09:36.627Z,27.16
2022-08-08T15:13:20.730Z,26.43
2022-08-08T15:17:04.938Z,24.89
2022-08-08T15:20:51.232Z,21.48
2022-08-08T15:24:36.670Z,20.96
2022-08-08T15:28:33.981Z,20.49
2022-08-08T15:32:20.927Z,20.04
2022-08-08T15:36:06.542Z,19.86
2022-08-08T15:39:49.754Z,19.17
2022-08-08T15:43:35.208Z,19.49
2022-08-08T15:47:22.450Z,19.71
2022-08-08T15:51:07.087Z,19.68
2022-08-08T15:54:53.910Z,20.21
2022-08-08T15:58:36.927Z,20.75
2022-08-08T16:02:30.917Z,21.96
2022-08-08T16:06:14.686Z,22.19
2022-08-08T16:13:21.464Z,22.68
2022-08-08T16:14:16.141Z,23.40
2022-08-08T16:18:17.079Z,23.80
2022-08-08T16:22:02.617Z,24.19
2022-08-08T16:25:45.888Z,25.33
2022-08-08T16:29:37.459Z,24.68
2022-08-08T16:33:40.385Z,25.36
2022-08-08T16:37:23.550Z,25.27
2022-08-08T16:41:10.626Z,26.66
2022-08-08T16:45:02.477Z,26.30
2022-08-08T16:48:55.904Z,26.94
2022-08-08T16:55:04.271Z,27.68
2022-08-08T16:56:57.950Z,28.60
2022-08-08T17:00:48.698Z,28.35
2022-08-08T17:04:33.404Z,28.75
2022-08-08T17:08:16.144Z,28.77
2022-08-08T17:12:02.599Z,29.60
2022-08-08T17:15:52.545Z,30.06
2022-08-08T17:19:40.862Z,30.82
2022-08-08T17:23:58.338Z,31.00
2022-08-08T17:27:29.219Z,31.31
2022-08-08T17:31:44.616Z,31.90
2022-08-08T17:35:53.341Z,32.55
2022-08-08T17:40:04.787Z,32.94
2022-08-08T17:44:00.922Z,32.55
2022-08-08T17:47:41.636Z,33.96
2022-08-08T17:51:25.803Z,35.18
2022-08-08T17:56:07.047Z,36.23
2022-08-08T17:59:15.217Z,37.34
2022-08-08T18:03:07.595Z,37.60
2022-08-08T18:06:54.654Z,38.51
2022-08-08T18:10:39.055Z,39.02
2022-08-08T18:14:22.632Z,39.13
2022-08-08T18:18:29.181Z,39.59
2022-08-08T18:22:49.737Z,40.10
2022-08-08T18:26:12.607Z,40.45
2022-08-08T18:29:55.967Z,41.41
2022-08-08T18:34:12.305Z,41.35
2022-08-08T18:37:48.458Z,42.25
2022-08-08T18:41:51.578Z,42.33
2022-08-08T18:46:53.434Z,42.64
2022-08-08T18:49:57.389Z,42.71
2022-08-08T18:54:00.338Z,42.80
2022-08-08T18:57:46.845Z,42.83
2022-08-08T19:02:24.967Z,43.10
2022-08-08T19:05:38.420Z,43.30
2022-08-08T19:09:48.838Z,43.23
2022-08-08T19:13:47.303Z,44.20
2022-08-08T19:18:33.503Z,44.69
2022-08-08T19:21:49.570Z,45.21
2022-08-08T19:25:59.943Z,45.68
2022-08-08T19:29:42.289Z,44.96
2022-08-08T19:33:51.736Z,45.07
2022-08-08T19:37:43.862Z,46.52
2022-08-08T19:41:35.938Z,46.73
2022-08-08T19:45:58.415Z,45.95
2022-08-08T19:49:22.141Z,46.49
2022-08-08T19:53:52.029Z,46.77
2022-08-08T19:57:10.069Z,46.65
2022-08-08T20:00:54.107Z,47.22
2022-08-08T20:04:37.312Z,45.28
2022-08-08T20:08:39.674Z,44.43
2022-08-08T20:12:32.018Z,44.24
2022-08-08T20:16:18.136Z,44.41
2022-08-08T20:20:01.019Z,44.45
2022-08-08T20:23:44.620Z,44.88
2022-08-08T20:27:43.627Z,44.95
2022-08-08T20:32:02.598Z,45.06
2022-08-08T20:35:58.091Z,45.11
2022-08-08T20:39:41.397Z,45.06
2022-08-08T20:43:44.264Z,45.34
2022-08-08T20:47:36.291Z,45.34
2022-08-08T20:51:21.847Z,46.95
2022-08-08T20:55:22.411Z,47.81
2022-08-08T20:59:09.617Z,47.74
2022-08-08T21:02:53.035Z,48.40
2022-08-08T21:06:52.140Z,48.31
2022-08-08T21:10:37.050Z,48.52
2022-08-08T21:14:33.383Z,48.97
2022-08-08T21:18:17.558Z,49.17
2022-08-08T21:22:04.036Z,49.44
2022-08-08T21:25:53.311Z,50.20
2022-08-08T21:30:04.455Z,50.23
2022-08-08T21:33:42.421Z,50.20
2022-08-08T21:37:28.809Z,50.65
2022-08-08T21:41:42.910Z,50.97
2022-08-08T21:48:01.185Z,51.37
2022-08-08T21:49:37.801Z,51.61
2022-08-08T21:54:31.636Z,51.81
2022-08-08T21:57:23.422Z,51.96
2022-08-08T22:01:28.148Z,52.55
2022-08-08T22:05:14.619Z,52.61
2022-08-08T22:08:58.402Z,53.10
2022-08-08T22:12:41.372Z,53.21
2022-08-08T22:16:25.906Z,53.57
2022-08-08T22:20:12.379Z,53.95
2022-08-08T22:23:56.146Z,54.36
2022-08-08T22:28:04.317Z,54.49
2022-08-08T22:31:44.046Z,55.00
2022-08-08T22:36:04.433Z,55.39
2022-08-08T22:40:00.162Z,55.65
2022-08-08T22:44:02.690Z,56.35
2022-08-08T22:47:51.956Z,56.88
2022-08-08T22:51:42.719Z,57.09
2022-08-08T22:55:29.538Z,57.13
2022-08-08T22:59:13.379Z,57.62
2022-08-08T23:03:02.994Z,57.67
2022-08-08T23:06:46.717Z,58.12
2022-08-08T23:10:29.576Z,58.43
2022-08-08T23:14:12.717Z,58.14
2022-08-08T23:17:58.263Z,57.86
2022-08-08T23:21:42.712Z,58.40
2022-08-08T23:25:28.653Z,58.68
2022-08-08T23:29:11.490Z,58.90
2022-08-08T23:32:54.263Z,58.85
2022-08-08T23:36:36.974Z,58.80
2022-08-08T23:40:22.204Z,59.15
2022-08-08T23:44:05.763Z,59.12
2022-08-08T23:49:04.618Z,59.33
2022-08-08T23:52:05.016Z,59.13
2022-08-08T23:55:52.165Z,59.13
2022-08-08T23:59:36.033Z,59.17
